sensor_id;sensor_type;location;lat;lon;timestamp;P1;durP1;ratioP1;P2;durP2;ratioP2
32611;SDS011;19030;49.478;8.986;2022-09-30T00:00:47;6.25;;;3.38;;
32611;SDS011;19030;49.478;8.986;2022-09-30T00:02:48;5.35;;;3.30;;
32611;SDS011;19030;49.478;8.986;2022-09-30T00:04:49;7.72;;;3.60;;
32611;SDS011;19030;49.478;8.986;2022-09-30T00:06:49;5.95;;;3.38;;
32611;SDS011;19030;49.478;8.986;2022-09-30T00:08:51;5.82;;;3.20;;
32611;SDS011;19030;49.478;8.986;2022-09-30T00:11:02;8.18;;;3.53;;
32611;SDS011;19030;49.478;8.986;2022-09-30T00:13:03;7.55;;;3.25;;
32611;SDS011;19030;49.478;8.986;2022-09-30T00:15:04;6.88;;;3.35;;
32611;SDS011;19030;49.478;8.986;2022-09-30T00:17:05;9.68;;;3.83;;
32611;SDS011;19030;49.478;8.986;2022-09-30T00:19:05;11.15;;;5.18;;
32611;SDS011;19030;49.478;8.986;2022-09-30T00:21:06;8.13;;;3.72;;
32611;SDS011;19030;49.478;8.986;2022-09-30T00:23:08;9.05;;;3.92;;
32611;SDS011;19030;49.478;8.986;2022-09-30T00:25:09;9.25;;;4.50;;
32611;SDS011;19030;49.478;8.986;2022-09-30T00:27:09;6.40;;;3.80;;
32611;SDS011;19030;49.478;8.986;2022-09-30T00:29:11;10.23;;;3.90;;
32611;SDS011;19030;49.478;8.986;2022-09-30T00:31:13;6.10;;;3.17;;
32611;SDS011;19030;49.478;8.986;2022-09-30T00:33:15;6.18;;;3.40;;
32611;SDS011;19030;49.478;8.986;2022-09-30T00:35:16;6.38;;;3.72;;
32611;SDS011;19030;49.478;8.986;2022-09-30T00:37:16;8.10;;;3.40;;
32611;SDS011;19030;49.478;8.986;2022-09-30T00:39:18;5.40;;;2.88;;
32611;SDS011;19030;49.478;8.986;2022-09-30T00:41:22;8.20;;;3.63;;
32611;SDS011;19030;49.478;8.986;2022-09-30T00:43:39;7.80;;;3.75;;
32611;SDS011;19030;49.478;8.986;2022-09-30T00:45:48;7.68;;;3.58;;
32611;SDS011;19030;49.478;8.986;2022-09-30T00:52:16;5.28;;;3.45;;
32611;SDS011;19030;49.478;8.986;2022-09-30T00:54:22;7.10;;;3.55;;
32611;SDS011;19030;49.478;8.986;2022-09-30T00:56:28;5.93;;;3.55;;
32611;SDS011;19030;49.478;8.986;2022-09-30T00:58:34;6.88;;;3.63;;
32611;SDS011;19030;49.478;8.986;2022-09-30T01:00:39;7.30;;;2.75;;
32611;SDS011;19030;49.478;8.986;2022-09-30T01:02:40;7.60;;;3.60;;
32611;SDS011;19030;49.478;8.986;2022-09-30T01:04:40;5.75;;;3.45;;
32611;SDS011;19030;49.478;8.986;2022-09-30T01:06:43;6.20;;;3.22;;
32611;SDS011;19030;49.478;8.986;2022-09-30T01:08:43;6.57;;;3.35;;
32611;SDS011;19030;49.478;8.986;2022-09-30T01:10:45;6.50;;;3.45;;
32611;SDS011;19030;49.478;8.986;2022-09-30T01:12:46;6.70;;;3.20;;
32611;SDS011;19030;49.478;8.986;2022-09-30T01:14:46;6.75;;;3.38;;
32611;SDS011;19030;49.478;8.986;2022-09-30T01:17:13;6.53;;;3.60;;
32611;SDS011;19030;49.478;8.986;2022-09-30T01:29:29;5.25;;;3.20;;
32611;SDS011;19030;49.478;8.986;2022-09-30T01:31:52;8.70;;;3.20;;
32611;SDS011;19030;49.478;8.986;2022-09-30T01:41:06;5.55;;;3.20;;
32611;SDS011;19030;49.478;8.986;2022-09-30T01:43:25;6.72;;;3.13;;
32611;SDS011;19030;49.478;8.986;2022-09-30T01:45:34;6.50;;;3.60;;
32611;SDS011;19030;49.478;8.986;2022-09-30T01:47:49;7.22;;;3.25;;
32611;SDS011;19030;49.478;8.986;2022-09-30T01:49:59;5.35;;;2.90;;
32611;SDS011;19030;49.478;8.986;2022-09-30T01:52:23;5.50;;;3.13;;
32611;SDS011;19030;49.478;8.986;2022-09-30T01:57:00;6.32;;;3.17;;
32611;SDS011;19030;49.478;8.986;2022-09-30T01:59:15;7.82;;;3.35;;
32611;SDS011;19030;49.478;8.986;2022-09-30T02:01:25;6.80;;;3.10;;
32611;SDS011;19030;49.478;8.986;2022-09-30T02:03:32;6.78;;;3.30;;
32611;SDS011;19030;49.478;8.986;2022-09-30T02:05:43;6.80;;;3.50;;
32611;SDS011;19030;49.478;8.986;2022-09-30T02:08:06;4.93;;;3.08;;
32611;SDS011;19030;49.478;8.986;2022-09-30T02:10:18;4.93;;;3.30;;
32611;SDS011;19030;49.478;8.986;2022-09-30T02:12:23;6.45;;;3.30;;
32611;SDS011;19030;49.478;8.986;2022-09-30T02:14:35;6.28;;;3.33;;
32611;SDS011;19030;49.478;8.986;2022-09-30T02:16:47;4.93;;;3.00;;
32611;SDS011;19030;49.478;8.986;2022-09-30T02:18:53;5.70;;;3.30;;
32611;SDS011;19030;49.478;8.986;2022-09-30T02:20:58;10.07;;;3.25;;
32611;SDS011;19030;49.478;8.986;2022-09-30T02:23:06;6.43;;;3.65;;
32611;SDS011;19030;49.478;8.986;2022-09-30T02:25:16;4.95;;;3.08;;
32611;SDS011;19030;49.478;8.986;2022-09-30T02:27:23;5.35;;;2.90;;
32611;SDS011;19030;49.478;8.986;2022-09-30T02:29:28;6.70;;;3.63;;
32611;SDS011;19030;49.478;8.986;2022-09-30T02:31:35;5.82;;;3.40;;
32611;SDS011;19030;49.478;8.986;2022-09-30T02:33:40;4.32;;;3.05;;
32611;SDS011;19030;49.478;8.986;2022-09-30T02:35:49;6.90;;;3.20;;
32611;SDS011;19030;49.478;8.986;2022-09-30T02:37:55;5.47;;;3.30;;
32611;SDS011;19030;49.478;8.986;2022-09-30T02:40:01;5.88;;;3.42;;
32611;SDS011;19030;49.478;8.986;2022-09-30T02:42:11;5.32;;;3.45;;
32611;SDS011;19030;49.478;8.986;2022-09-30T02:44:19;7.05;;;3.35;;
32611;SDS011;19030;49.478;8.986;2022-09-30T02:48:33;5.57;;;3.15;;
32611;SDS011;19030;49.478;8.986;2022-09-30T02:50:53;4.60;;;3.20;;
32611;SDS011;19030;49.478;8.986;2022-09-30T02:55:23;5.95;;;3.28;;
32611;SDS011;19030;49.478;8.986;2022-09-30T02:58:10;5.15;;;3.47;;
32611;SDS011;19030;49.478;8.986;2022-09-30T03:00:03;6.65;;;3.28;;
32611;SDS011;19030;49.478;8.986;2022-09-30T03:02:06;6.22;;;3.40;;
32611;SDS011;19030;49.478;8.986;2022-09-30T03:04:07;6.82;;;3.13;;
32611;SDS011;19030;49.478;8.986;2022-09-30T03:06:11;5.78;;;3.05;;
32611;SDS011;19030;49.478;8.986;2022-09-30T03:08:12;7.05;;;3.50;;
32611;SDS011;19030;49.478;8.986;2022-09-30T03:10:14;6.68;;;3.22;;
32611;SDS011;19030;49.478;8.986;2022-09-30T03:18:15;6.32;;;3.42;;
32611;SDS011;19030;49.478;8.986;2022-09-30T03:20:09;4.80;;;3.10;;
32611;SDS011;19030;49.478;8.986;2022-09-30T03:27:58;5.65;;;3.08;;
32611;SDS011;19030;49.478;8.986;2022-09-30T03:30:15;5.80;;;3.40;;
32611;SDS011;19030;49.478;8.986;2022-09-30T03:32:26;4.72;;;3.03;;
32611;SDS011;19030;49.478;8.986;2022-09-30T03:36:50;8.70;;;3.10;;
32611;SDS011;19030;49.478;8.986;2022-09-30T03:41:53;6.18;;;3.00;;
32611;SDS011;19030;49.478;8.986;2022-09-30T03:44:01;5.97;;;3.17;;
32611;SDS011;19030;49.478;8.986;2022-09-30T03:46:12;6.28;;;3.03;;
32611;SDS011;19030;49.478;8.986;2022-09-30T03:48:18;4.55;;;3.00;;
32611;SDS011;19030;49.478;8.986;2022-09-30T03:50:21;5.13;;;3.03;;
32611;SDS011;19030;49.478;8.986;2022-09-30T03:52:23;4.55;;;2.85;;
32611;SDS011;19030;49.478;8.986;2022-09-30T03:54:25;9.40;;;2.92;;
32611;SDS011;19030;49.478;8.986;2022-09-30T03:56:26;4.55;;;2.85;;
32611;SDS011;19030;49.478;8.986;2022-09-30T03:58:28;5.00;;;2.88;;
32611;SDS011;19030;49.478;8.986;2022-09-30T04:00:29;6.15;;;3.10;;
32611;SDS011;19030;49.478;8.986;2022-09-30T04:02:32;5.07;;;3.25;;
32611;SDS011;19030;49.478;8.986;2022-09-30T04:04:33;4.53;;;2.95;;
32611;SDS011;19030;49.478;8.986;2022-09-30T04:06:34;6.55;;;3.15;;
32611;SDS011;19030;49.478;8.986;2022-09-30T04:08:34;6.07;;;2.90;;
32611;SDS011;19030;49.478;8.986;2022-09-30T04:10:35;5.28;;;3.25;;
32611;SDS011;19030;49.478;8.986;2022-09-30T04:12:38;6.63;;;3.13;;
32611;SDS011;19030;49.478;8.986;2022-09-30T04:14:38;7.13;;;3.55;;
32611;SDS011;19030;49.478;8.986;2022-09-30T04:16:39;5.63;;;3.60;;
32611;SDS011;19030;49.478;8.986;2022-09-30T04:18:39;6.22;;;3.60;;
32611;SDS011;19030;49.478;8.986;2022-09-30T04:20:40;9.23;;;3.30;;
32611;SDS011;19030;49.478;8.986;2022-09-30T04:22:40;6.55;;;3.38;;
32611;SDS011;19030;49.478;8.986;2022-09-30T04:24:41;5.53;;;3.25;;
32611;SDS011;19030;49.478;8.986;2022-09-30T04:26:42;7.90;;;3.80;;
32611;SDS011;19030;49.478;8.986;2022-09-30T04:28:43;6.03;;;3.30;;
32611;SDS011;19030;49.478;8.986;2022-09-30T04:30:43;6.85;;;3.42;;
32611;SDS011;19030;49.478;8.986;2022-09-30T04:32:44;7.60;;;3.72;;
32611;SDS011;19030;49.478;8.986;2022-09-30T04:34:45;5.80;;;3.70;;
32611;SDS011;19030;49.478;8.986;2022-09-30T04:36:45;5.28;;;3.20;;
32611;SDS011;19030;49.478;8.986;2022-09-30T04:38:46;5.72;;;2.90;;
32611;SDS011;19030;49.478;8.986;2022-09-30T04:40:47;5.57;;;3.33;;
32611;SDS011;19030;49.478;8.986;2022-09-30T04:42:48;5.43;;;3.20;;
32611;SDS011;19030;49.478;8.986;2022-09-30T04:44:49;8.15;;;3.33;;
32611;SDS011;19030;49.478;8.986;2022-09-30T04:46:50;5.43;;;3.30;;
32611;SDS011;19030;49.478;8.986;2022-09-30T04:48:50;7.80;;;3.60;;
32611;SDS011;19030;49.478;8.986;2022-09-30T04:50:51;8.13;;;3.33;;
32611;SDS011;19030;49.478;8.986;2022-09-30T04:52:51;6.95;;;3.40;;
32611;SDS011;19030;49.478;8.986;2022-09-30T04:54:54;9.23;;;3.70;;
32611;SDS011;19030;49.478;8.986;2022-09-30T04:56:55;7.53;;;3.80;;
32611;SDS011;19030;49.478;8.986;2022-09-30T04:58:56;7.45;;;4.30;;
32611;SDS011;19030;49.478;8.986;2022-09-30T05:01:15;6.25;;;3.90;;
32611;SDS011;19030;49.478;8.986;2022-09-30T05:03:17;6.93;;;3.65;;
32611;SDS011;19030;49.478;8.986;2022-09-30T05:05:18;7.55;;;3.90;;
32611;SDS011;19030;49.478;8.986;2022-09-30T05:07:19;5.93;;;3.40;;
32611;SDS011;19030;49.478;8.986;2022-09-30T05:09:21;5.82;;;4.07;;
32611;SDS011;19030;49.478;8.986;2022-09-30T05:11:22;15.15;;;4.18;;
32611;SDS011;19030;49.478;8.986;2022-09-30T05:13:23;5.43;;;3.50;;
32611;SDS011;19030;49.478;8.986;2022-09-30T05:15:25;5.80;;;3.20;;
32611;SDS011;19030;49.478;8.986;2022-09-30T05:17:28;5.45;;;3.45;;
32611;SDS011;19030;49.478;8.986;2022-09-30T05:19:29;6.60;;;3.55;;
32611;SDS011;19030;49.478;8.986;2022-09-30T05:21:30;9.32;;;3.60;;
32611;SDS011;19030;49.478;8.986;2022-09-30T05:23:30;7.50;;;3.78;;
32611;SDS011;19030;49.478;8.986;2022-09-30T05:25:33;5.47;;;3.38;;
32611;SDS011;19030;49.478;8.986;2022-09-30T05:27:34;6.70;;;3.80;;
32611;SDS011;19030;49.478;8.986;2022-09-30T05:29:35;9.02;;;3.47;;
32611;SDS011;19030;49.478;8.986;2022-09-30T05:31:35;7.28;;;3.30;;
32611;SDS011;19030;49.478;8.986;2022-09-30T05:33:36;5.85;;;3.78;;
32611;SDS011;19030;49.478;8.986;2022-09-30T05:35:38;6.95;;;4.00;;
32611;SDS011;19030;49.478;8.986;2022-09-30T05:37:40;6.82;;;3.97;;
32611;SDS011;19030;49.478;8.986;2022-09-30T05:39:40;7.43;;;3.95;;
32611;SDS011;19030;49.478;8.986;2022-09-30T05:41:41;8.60;;;4.13;;
32611;SDS011;19030;49.478;8.986;2022-09-30T05:43:42;6.70;;;4.45;;
32611;SDS011;19030;49.478;8.986;2022-09-30T05:45:55;6.65;;;4.28;;
32611;SDS011;19030;49.478;8.986;2022-09-30T05:47:56;8.13;;;4.18;;
32611;SDS011;19030;49.478;8.986;2022-09-30T05:49:56;6.80;;;3.95;;
32611;SDS011;19030;49.478;8.986;2022-09-30T05:51:57;6.00;;;3.70;;
32611;SDS011;19030;49.478;8.986;2022-09-30T05:53:58;5.05;;;3.17;;
32611;SDS011;19030;49.478;8.986;2022-09-30T05:55:58;6.25;;;3.53;;
32611;SDS011;19030;49.478;8.986;2022-09-30T05:57:59;6.28;;;3.22;;
32611;SDS011;19030;49.478;8.986;2022-09-30T06:00:00;5.25;;;3.40;;
32611;SDS011;19030;49.478;8.986;2022-09-30T06:02:01;7.32;;;3.70;;
32611;SDS011;19030;49.478;8.986;2022-09-30T06:04:01;6.47;;;3.83;;
32611;SDS011;19030;49.478;8.986;2022-09-30T06:06:02;5.65;;;3.15;;
32611;SDS011;19030;49.478;8.986;2022-09-30T06:08:06;6.70;;;3.92;;
32611;SDS011;19030;49.478;8.986;2022-09-30T06:10:07;6.22;;;3.35;;
32611;SDS011;19030;49.478;8.986;2022-09-30T06:12:11;8.25;;;4.05;;
32611;SDS011;19030;49.478;8.986;2022-09-30T06:14:11;6.25;;;3.60;;
32611;SDS011;19030;49.478;8.986;2022-09-30T06:16:12;7.53;;;3.60;;
32611;SDS011;19030;49.478;8.986;2022-09-30T06:18:13;5.55;;;3.42;;
32611;SDS011;19030;49.478;8.986;2022-09-30T06:20:15;8.73;;;3.42;;
32611;SDS011;19030;49.478;8.986;2022-09-30T06:22:16;5.95;;;3.83;;
32611;SDS011;19030;49.478;8.986;2022-09-30T06:24:17;6.43;;;3.70;;
32611;SDS011;19030;49.478;8.986;2022-09-30T06:26:17;6.93;;;3.67;;
32611;SDS011;19030;49.478;8.986;2022-09-30T06:28:18;12.10;;;4.20;;
32611;SDS011;19030;49.478;8.986;2022-09-30T06:30:19;6.75;;;4.07;;
32611;SDS011;19030;49.478;8.986;2022-09-30T06:32:21;6.75;;;3.80;;
32611;SDS011;19030;49.478;8.986;2022-09-30T06:34:22;5.95;;;3.80;;
32611;SDS011;19030;49.478;8.986;2022-09-30T06:36:23;6.97;;;4.30;;
32611;SDS011;19030;49.478;8.986;2022-09-30T06:38:23;8.60;;;3.85;;
32611;SDS011;19030;49.478;8.986;2022-09-30T06:40:26;7.10;;;4.35;;
32611;SDS011;19030;49.478;8.986;2022-09-30T06:42:26;8.13;;;4.57;;
32611;SDS011;19030;49.478;8.986;2022-09-30T06:44:27;11.00;;;6.28;;
32611;SDS011;19030;49.478;8.986;2022-09-30T06:46:28;7.25;;;4.57;;
32611;SDS011;19030;49.478;8.986;2022-09-30T06:48:28;6.53;;;3.72;;
32611;SDS011;19030;49.478;8.986;2022-09-30T06:50:29;7.85;;;3.30;;
32611;SDS011;19030;49.478;8.986;2022-09-30T06:52:31;5.78;;;3.38;;
32611;SDS011;19030;49.478;8.986;2022-09-30T06:54:31;8.80;;;3.30;;
32611;SDS011;19030;49.478;8.986;2022-09-30T06:56:32;5.60;;;3.35;;
32611;SDS011;19030;49.478;8.986;2022-09-30T06:58:32;6.47;;;3.25;;
32611;SDS011;19030;49.478;8.986;2022-09-30T07:00:33;5.32;;;3.50;;
32611;SDS011;19030;49.478;8.986;2022-09-30T07:02:33;6.38;;;3.60;;
32611;SDS011;19030;49.478;8.986;2022-09-30T07:04:34;7.35;;;3.30;;
32611;SDS011;19030;49.478;8.986;2022-09-30T07:06:35;10.48;;;4.00;;
32611;SDS011;19030;49.478;8.986;2022-09-30T07:08:37;5.10;;;3.47;;
32611;SDS011;19030;49.478;8.986;2022-09-30T07:10:38;6.20;;;3.72;;
32611;SDS011;19030;49.478;8.986;2022-09-30T07:12:39;7.35;;;3.72;;
32611;SDS011;19030;49.478;8.986;2022-09-30T07:14:41;8.85;;;3.80;;
32611;SDS011;19030;49.478;8.986;2022-09-30T07:16:41;6.75;;;3.90;;
32611;SDS011;19030;49.478;8.986;2022-09-30T07:18:44;7.78;;;3.88;;
32611;SDS011;19030;49.478;8.986;2022-09-30T07:20:48;7.93;;;4.32;;
32611;SDS011;19030;49.478;8.986;2022-09-30T07:22:50;7.15;;;3.50;;
32611;SDS011;19030;49.478;8.986;2022-09-30T07:24:51;6.50;;;3.72;;
32611;SDS011;19030;49.478;8.986;2022-09-30T07:26:52;7.93;;;3.90;;
32611;SDS011;19030;49.478;8.986;2022-09-30T07:28:52;8.88;;;3.78;;
32611;SDS011;19030;49.478;8.986;2022-09-30T07:30:53;6.50;;;3.38;;
32611;SDS011;19030;49.478;8.986;2022-09-30T07:32:57;7.57;;;3.33;;
32611;SDS011;19030;49.478;8.986;2022-09-30T07:34:58;6.93;;;3.45;;
32611;SDS011;19030;49.478;8.986;2022-09-30T07:36:59;7.25;;;3.60;;
32611;SDS011;19030;49.478;8.986;2022-09-30T07:39:01;11.45;;;3.40;;
32611;SDS011;19030;49.478;8.986;2022-09-30T07:41:07;5.72;;;3.30;;
32611;SDS011;19030;49.478;8.986;2022-09-30T07:43:09;5.18;;;3.35;;
32611;SDS011;19030;49.478;8.986;2022-09-30T07:45:11;7.25;;;3.50;;
32611;SDS011;19030;49.478;8.986;2022-09-30T07:47:16;6.75;;;3.50;;
32611;SDS011;19030;49.478;8.986;2022-09-30T07:49:17;4.95;;;3.30;;
32611;SDS011;19030;49.478;8.986;2022-09-30T07:51:28;6.00;;;3.47;;
32611;SDS011;19030;49.478;8.986;2022-09-30T07:53:32;7.85;;;3.55;;
32611;SDS011;19030;49.478;8.986;2022-09-30T07:55:33;7.72;;;3.60;;
32611;SDS011;19030;49.478;8.986;2022-09-30T07:57:33;6.68;;;3.65;;
32611;SDS011;19030;49.478;8.986;2022-09-30T07:59:36;10.80;;;4.00;;
32611;SDS011;19030;49.478;8.986;2022-09-30T08:01:38;6.32;;;3.75;;
32611;SDS011;19030;49.478;8.986;2022-09-30T08:03:40;6.45;;;3.55;;
32611;SDS011;19030;49.478;8.986;2022-09-30T08:05:43;4.47;;;3.00;;
32611;SDS011;19030;49.478;8.986;2022-09-30T08:07:44;11.00;;;3.80;;
32611;SDS011;19030;49.478;8.986;2022-09-30T08:09:44;5.80;;;3.55;;
32611;SDS011;19030;49.478;8.986;2022-09-30T08:11:45;7.43;;;4.30;;
32611;SDS011;19030;49.478;8.986;2022-09-30T08:13:50;7.57;;;3.40;;
32611;SDS011;19030;49.478;8.986;2022-09-30T08:15:54;5.20;;;3.30;;
32611;SDS011;19030;49.478;8.986;2022-09-30T08:17:55;9.80;;;3.65;;
32611;SDS011;19030;49.478;8.986;2022-09-30T08:19:55;4.25;;;3.00;;
32611;SDS011;19030;49.478;8.986;2022-09-30T08:21:56;5.72;;;3.53;;
32611;SDS011;19030;49.478;8.986;2022-09-30T08:23:57;6.93;;;3.85;;
32611;SDS011;19030;49.478;8.986;2022-09-30T08:26:05;6.78;;;3.70;;
32611;SDS011;19030;49.478;8.986;2022-09-30T08:28:07;6.70;;;3.35;;
32611;SDS011;19030;49.478;8.986;2022-09-30T08:30:08;6.78;;;3.45;;
32611;SDS011;19030;49.478;8.986;2022-09-30T08:32:09;6.20;;;3.80;;
32611;SDS011;19030;49.478;8.986;2022-09-30T08:34:09;7.93;;;3.85;;
32611;SDS011;19030;49.478;8.986;2022-09-30T08:36:14;9.05;;;5.45;;
32611;SDS011;19030;49.478;8.986;2022-09-30T08:40:21;7.72;;;5.38;;
32611;SDS011;19030;49.478;8.986;2022-09-30T08:42:47;8.85;;;6.82;;
32611;SDS011;19030;49.478;8.986;2022-09-30T08:47:32;7.82;;;4.20;;
32611;SDS011;19030;49.478;8.986;2022-09-30T08:52:10;8.70;;;4.93;;
32611;SDS011;19030;49.478;8.986;2022-09-30T08:54:17;8.77;;;5.00;;
32611;SDS011;19030;49.478;8.986;2022-09-30T08:56:22;8.48;;;4.68;;
32611;SDS011;19030;49.478;8.986;2022-09-30T08:58:31;7.10;;;4.43;;
32611;SDS011;19030;49.478;8.986;2022-09-30T09:00:34;8.15;;;4.90;;
32611;SDS011;19030;49.478;8.986;2022-09-30T09:02:45;8.73;;;4.80;;
32611;SDS011;19030;49.478;8.986;2022-09-30T09:04:48;7.00;;;4.60;;
32611;SDS011;19030;49.478;8.986;2022-09-30T09:09:11;7.10;;;5.00;;
32611;SDS011;19030;49.478;8.986;2022-09-30T09:13:46;10.18;;;5.95;;
32611;SDS011;19030;49.478;8.986;2022-09-30T09:16:07;8.40;;;5.65;;
32611;SDS011;19030;49.478;8.986;2022-09-30T09:23:33;6.28;;;4.97;;
32611;SDS011;19030;49.478;8.986;2022-09-30T09:25:34;10.77;;;5.32;;
32611;SDS011;19030;49.478;8.986;2022-09-30T09:27:56;8.48;;;5.13;;
32611;SDS011;19030;49.478;8.986;2022-09-30T09:30:03;8.30;;;4.90;;
32611;SDS011;19030;49.478;8.986;2022-09-30T09:32:14;7.30;;;5.65;;
32611;SDS011;19030;49.478;8.986;2022-09-30T09:34:17;7.90;;;5.10;;
32611;SDS011;19030;49.478;8.986;2022-09-30T09:41:19;7.65;;;5.78;;
32611;SDS011;19030;49.478;8.986;2022-09-30T09:43:34;8.35;;;5.05;;
32611;SDS011;19030;49.478;8.986;2022-09-30T09:45:52;8.20;;;5.50;;
32611;SDS011;19030;49.478;8.986;2022-09-30T09:48:06;7.57;;;4.80;;
32611;SDS011;19030;49.478;8.986;2022-09-30T09:50:14;7.60;;;5.20;;
32611;SDS011;19030;49.478;8.986;2022-09-30T09:54:56;9.50;;;4.97;;
32611;SDS011;19030;49.478;8.986;2022-09-30T09:57:06;9.10;;;5.63;;
32611;SDS011;19030;49.478;8.986;2022-09-30T09:59:10;8.30;;;5.57;;
32611;SDS011;19030;49.478;8.986;2022-09-30T10:01:18;17.35;;;5.85;;
32611;SDS011;19030;49.478;8.986;2022-09-30T10:03:31;9.50;;;5.53;;
32611;SDS011;19030;49.478;8.986;2022-09-30T10:05:33;8.60;;;4.60;;
32611;SDS011;19030;49.478;8.986;2022-09-30T10:07:39;8.73;;;5.43;;
32611;SDS011;19030;49.478;8.986;2022-09-30T10:09:40;8.70;;;5.30;;
32611;SDS011;19030;49.478;8.986;2022-09-30T10:11:42;8.55;;;7.05;;
32611;SDS011;19030;49.478;8.986;2022-09-30T10:13:43;7.20;;;4.72;;
32611;SDS011;19030;49.478;8.986;2022-09-30T10:15:45;8.70;;;4.55;;
32611;SDS011;19030;49.478;8.986;2022-09-30T10:17:56;12.10;;;5.50;;
32611;SDS011;19030;49.478;8.986;2022-09-30T10:24:18;7.47;;;5.03;;
32611;SDS011;19030;49.478;8.986;2022-09-30T10:26:26;8.77;;;5.30;;
32611;SDS011;19030;49.478;8.986;2022-09-30T10:28:29;9.35;;;5.25;;
32611;SDS011;19030;49.478;8.986;2022-09-30T10:30:48;6.82;;;4.70;;
32611;SDS011;19030;49.478;8.986;2022-09-30T10:32:53;7.72;;;4.82;;
32611;SDS011;19030;49.478;8.986;2022-09-30T10:35:46;8.15;;;5.00;;
32611;SDS011;19030;49.478;8.986;2022-09-30T10:37:22;8.30;;;4.75;;
32611;SDS011;19030;49.478;8.986;2022-09-30T10:39:25;6.90;;;4.40;;
32611;SDS011;19030;49.478;8.986;2022-09-30T10:41:27;6.03;;;3.97;;
32611;SDS011;19030;49.478;8.986;2022-09-30T10:43:36;9.13;;;5.05;;
32611;SDS011;19030;49.478;8.986;2022-09-30T10:45:41;5.50;;;3.90;;
32611;SDS011;19030;49.478;8.986;2022-09-30T10:47:44;8.38;;;4.05;;
32611;SDS011;19030;49.478;8.986;2022-09-30T10:49:49;9.50;;;4.93;;
32611;SDS011;19030;49.478;8.986;2022-09-30T10:51:55;8.80;;;4.63;;
32611;SDS011;19030;49.478;8.986;2022-09-30T10:53:56;7.10;;;4.43;;
32611;SDS011;19030;49.478;8.986;2022-09-30T10:55:57;6.07;;;4.30;;
32611;SDS011;19030;49.478;8.986;2022-09-30T10:58:03;8.75;;;4.60;;
32611;SDS011;19030;49.478;8.986;2022-09-30T11:00:20;10.30;;;4.60;;
32611;SDS011;19030;49.478;8.986;2022-09-30T11:02:25;6.75;;;4.20;;
32611;SDS011;19030;49.478;8.986;2022-09-30T11:04:30;6.80;;;4.07;;
32611;SDS011;19030;49.478;8.986;2022-09-30T11:06:39;7.22;;;4.50;;
32611;SDS011;19030;49.478;8.986;2022-09-30T11:08:43;7.85;;;4.45;;
32611;SDS011;19030;49.478;8.986;2022-09-30T11:11:01;7.75;;;4.25;;
32611;SDS011;19030;49.478;8.986;2022-09-30T11:13:29;6.43;;;4.25;;
32611;SDS011;19030;49.478;8.986;2022-09-30T11:15:46;6.65;;;4.50;;
32611;SDS011;19030;49.478;8.986;2022-09-30T11:18:04;8.43;;;4.72;;
32611;SDS011;19030;49.478;8.986;2022-09-30T11:20:27;5.78;;;3.97;;
32611;SDS011;19030;49.478;8.986;2022-09-30T11:22:35;6.45;;;4.20;;
32611;SDS011;19030;49.478;8.986;2022-09-30T11:24:48;5.43;;;4.00;;
32611;SDS011;19030;49.478;8.986;2022-09-30T11:27:03;7.78;;;4.00;;
32611;SDS011;19030;49.478;8.986;2022-09-30T11:34:27;8.15;;;4.40;;
32611;SDS011;19030;49.478;8.986;2022-09-30T11:37:14;9.70;;;3.90;;
32611;SDS011;19030;49.478;8.986;2022-09-30T11:41:33;6.63;;;3.85;;
32611;SDS011;19030;49.478;8.986;2022-09-30T11:44:00;6.97;;;3.95;;
32611;SDS011;19030;49.478;8.986;2022-09-30T11:53:47;5.57;;;3.83;;
32611;SDS011;19030;49.478;8.986;2022-09-30T11:56:11;7.20;;;4.30;;
32611;SDS011;19030;49.478;8.986;2022-09-30T11:58:25;8.88;;;4.50;;
32611;SDS011;19030;49.478;8.986;2022-09-30T12:00:33;7.75;;;3.90;;
32611;SDS011;19030;49.478;8.986;2022-09-30T12:02:36;6.63;;;3.35;;
32611;SDS011;19030;49.478;8.986;2022-09-30T12:04:40;8.23;;;3.80;;
32611;SDS011;19030;49.478;8.986;2022-09-30T12:06:47;6.38;;;4.20;;
32611;SDS011;19030;49.478;8.986;2022-09-30T12:09:20;6.82;;;2.65;;
32611;SDS011;19030;49.478;8.986;2022-09-30T12:11:40;8.07;;;3.28;;
32611;SDS011;19030;49.478;8.986;2022-09-30T12:14:13;10.13;;;3.70;;
32611;SDS011;19030;49.478;8.986;2022-09-30T12:16:41;6.65;;;3.95;;
32611;SDS011;19030;49.478;8.986;2022-09-30T12:18:45;7.88;;;2.85;;
32611;SDS011;19030;49.478;8.986;2022-09-30T12:20:57;5.95;;;2.67;;
32611;SDS011;19030;49.478;8.986;2022-09-30T12:25:23;6.93;;;3.10;;
32611;SDS011;19030;49.478;8.986;2022-09-30T12:27:32;6.47;;;3.20;;
32611;SDS011;19030;49.478;8.986;2022-09-30T12:29:42;9.77;;;3.30;;
32611;SDS011;19030;49.478;8.986;2022-09-30T12:32:29;6.28;;;3.40;;
32611;SDS011;19030;49.478;8.986;2022-09-30T12:37:52;5.25;;;3.05;;
32611;SDS011;19030;49.478;8.986;2022-09-30T12:49:05;5.70;;;3.53;;
32611;SDS011;19030;49.478;8.986;2022-09-30T12:51:19;6.65;;;3.22;;
32611;SDS011;19030;49.478;8.986;2022-09-30T12:55:37;6.20;;;3.40;;
32611;SDS011;19030;49.478;8.986;2022-09-30T12:57:40;4.78;;;3.08;;
32611;SDS011;19030;49.478;8.986;2022-09-30T12:59:50;9.45;;;3.55;;
32611;SDS011;19030;49.478;8.986;2022-09-30T13:01:54;7.82;;;3.80;;
32611;SDS011;19030;49.478;8.986;2022-09-30T13:06:03;5.65;;;3.50;;
32611;SDS011;19030;49.478;8.986;2022-09-30T13:10:23;7.97;;;4.25;;
32611;SDS011;19030;49.478;8.986;2022-09-30T13:12:39;5.28;;;3.42;;
32611;SDS011;19030;49.478;8.986;2022-09-30T13:14:42;4.78;;;2.92;;
32611;SDS011;19030;49.478;8.986;2022-09-30T13:16:58;5.60;;;3.15;;
32611;SDS011;19030;49.478;8.986;2022-09-30T13:19:17;6.57;;;3.50;;
32611;SDS011;19030;49.478;8.986;2022-09-30T13:21:20;4.93;;;2.90;;
32611;SDS011;19030;49.478;8.986;2022-09-30T13:23:38;6.47;;;3.35;;
32611;SDS011;19030;49.478;8.986;2022-09-30T13:25:53;7.82;;;3.10;;
32611;SDS011;19030;49.478;8.986;2022-09-30T13:32:30;6.43;;;3.20;;
32611;SDS011;19030;49.478;8.986;2022-09-30T13:34:46;7.50;;;3.45;;
32611;SDS011;19030;49.478;8.986;2022-09-30T13:39:05;7.63;;;3.28;;
32611;SDS011;19030;49.478;8.986;2022-09-30T13:41:17;6.78;;;3.00;;
32611;SDS011;19030;49.478;8.986;2022-09-30T13:45:32;8.35;;;3.17;;
32611;SDS011;19030;49.478;8.986;2022-09-30T13:47:46;5.50;;;2.30;;
32611;SDS011;19030;49.478;8.986;2022-09-30T13:50:05;6.85;;;2.90;;
32611;SDS011;19030;49.478;8.986;2022-09-30T13:52:20;9.15;;;3.08;;
32611;SDS011;19030;49.478;8.986;2022-09-30T13:54:34;5.85;;;2.97;;
32611;SDS011;19030;49.478;8.986;2022-09-30T13:56:40;5.63;;;2.97;;
32611;SDS011;19030;49.478;8.986;2022-09-30T13:58:45;4.00;;;2.60;;
32611;SDS011;19030;49.478;8.986;2022-09-30T14:01:03;5.85;;;3.10;;
32611;SDS011;19030;49.478;8.986;2022-09-30T14:05:56;6.03;;;3.50;;
32611;SDS011;19030;49.478;8.986;2022-09-30T14:10:38;6.88;;;2.88;;
32611;SDS011;19030;49.478;8.986;2022-09-30T14:20:14;8.05;;;4.20;;
32611;SDS011;19030;49.478;8.986;2022-09-30T14:22:21;7.00;;;3.92;;
32611;SDS011;19030;49.478;8.986;2022-09-30T14:24:26;6.65;;;3.50;;
32611;SDS011;19030;49.478;8.986;2022-09-30T14:28:46;5.50;;;3.80;;
32611;SDS011;19030;49.478;8.986;2022-09-30T14:31:00;6.53;;;3.80;;
32611;SDS011;19030;49.478;8.986;2022-09-30T14:33:18;5.60;;;3.90;;
32611;SDS011;19030;49.478;8.986;2022-09-30T14:35:25;6.05;;;3.30;;
32611;SDS011;19030;49.478;8.986;2022-09-30T14:39:30;6.22;;;3.90;;
32611;SDS011;19030;49.478;8.986;2022-09-30T14:41:31;5.40;;;3.40;;
32611;SDS011;19030;49.478;8.986;2022-09-30T14:43:37;4.20;;;3.10;;
32611;SDS011;19030;49.478;8.986;2022-09-30T14:45:42;6.75;;;3.65;;
32611;SDS011;19030;49.478;8.986;2022-09-30T14:47:45;5.43;;;3.50;;
32611;SDS011;19030;49.478;8.986;2022-09-30T14:49:49;9.13;;;3.65;;
32611;SDS011;19030;49.478;8.986;2022-09-30T14:51:49;10.45;;;3.50;;
32611;SDS011;19030;49.478;8.986;2022-09-30T14:53:52;7.88;;;3.85;;
32611;SDS011;19030;49.478;8.986;2022-09-30T14:55:57;7.35;;;3.90;;